Flight Track Log - Related Links

Times and Time Zones

All times are in EDT time to prevent confusion due to time zone crossing. See the C-GYYP flight status page for this flight to view local times or setup timezone preferences in your user account.


Time Position Orientation Groundspeed Altitude Reporting Facility
EDT Latitude Longitude Course Direction KTS MPH feet Rate Location/Type
Fri 02:14:41 PM 55.1500 -118.9667 183° South 120 138 3,000  Level Edmonton Center
Fri 02:15:41 PM 55.1167 -118.9667 180° South 130 150 3,900 850 Climbing Edmonton Center
Fri 02:16:41 PM 55.0833 -118.9833 196° South 140 161 4,700 750 Climbing Edmonton Center
Fri 02:17:41 PM 55.0333 -118.9833 180° South 140 161 5,400 650 Climbing Edmonton Center
Fri 02:18:41 PM 55.0000 -118.9833 180° South 140 161 6,000 650 Climbing Edmonton Center
Fri 02:19:41 PM 54.9500 -119.0000 191° South 140 161 6,700 650 Climbing Edmonton Center
Fri 02:20:00 PM 54.8477 -118.9184 183° South  Level Estimated
Fri 02:20:41 PM 54.9167 -119.0167 196° South 150 173 7,300  Level Edmonton Center
Fri 02:21:41 PM 54.8667 -119.0000 169° South 150 173 7,700 550 Climbing Edmonton Center
Fri 02:22:41 PM 54.8333 -119.0167 196° South 160 184 8,400 750 Climbing Edmonton Center
Fri 02:23:41 PM 54.7833 -118.9833 159° South 150 173 9,200 650 Climbing Edmonton Center
Fri 02:24:41 PM 54.7500 -119.0000 196° South 150 173 9,700 450 Climbing Edmonton Center
Fri 02:25:41 PM 54.7000 -118.9833 169° South 150 173 10,100 350 Climbing Edmonton Center
Fri 02:26:41 PM 54.6500 -118.9667 169° South 160 184 10,400 650 Climbing Edmonton Center
Fri 02:27:41 PM 54.6167 -118.9667 180° South 150 173 11,400 800 Climbing Edmonton Center
Fri 02:28:41 PM 54.5833 -118.9833 196° South 140 161 12,000 600 Climbing Edmonton Center
Fri 02:29:41 PM 54.5333 -118.9667 169° South 140 161 12,600 600 Climbing Edmonton Center
Fri 02:30:41 PM 54.5000 -118.9500 164° South 150 173 13,200 650 Climbing Edmonton Center
Fri 02:31:41 PM 54.4667 -118.9667 196° South 150 173 13,900 650 Climbing Edmonton Center
Fri 02:32:41 PM 54.4167 -118.9667 180° South 140 161 14,500 500 Climbing Edmonton Center
Fri 02:33:41 PM 54.3833 -118.9667 180° South 150 173 14,900 150 Climbing Edmonton Center
Fri 02:34:41 PM 54.3167 -118.9667 180° South 160 184 14,800 -50 Descending Edmonton Center
Fri 02:35:41 PM 54.2833 -118.9833 196° South 160 184 14,800  Level Edmonton Center
Fri 02:36:41 PM 54.2333 -118.9667 169° South 170 196 14,800  Level Edmonton Center
Fri 02:37:41 PM 54.1833 -118.9833 191° South 170 196 14,800  Level Edmonton Center
Fri 02:38:41 PM 54.1333 -119.0000 191° South 170 196 14,800  Level Edmonton Center
Fri 02:39:41 PM 54.1000 -119.0167 196° South 170 196 14,800  Level Edmonton Center
Fri 02:40:41 PM 54.0500 -119.0000 169° South 170 196 14,800  Level Edmonton Center
Fri 02:41:41 PM 54.0000 -119.0000 180° South 170 196 14,800  Level Edmonton Center
Fri 02:42:41 PM 53.9500 -119.0167 191° South 170 196 14,800  Level Edmonton Center
Fri 02:43:41 PM 53.9000 -119.0333 191° South 170 196 14,800  Level Edmonton Center
Fri 02:44:41 PM 53.8500 -119.0167 169° South 170 196 14,800  Level Edmonton Center
Fri 02:45:41 PM 53.8000 -119.0167 180° South 170 196 14,800  Level Edmonton Center
Fri 02:46:41 PM 53.7667 -119.0333 196° South 170 196 14,800  Level Edmonton Center
Fri 02:47:41 PM 53.7167 -119.0500 191° South 170 196 14,800 50 Level Edmonton Center
Fri 02:48:41 PM 53.6667 -119.0333 169° South 170 196 14,900  Climbing Edmonton Center
Fri 02:49:41 PM 53.6167 -119.0500 191° South 170 196 14,800  Descending Edmonton Center
Fri 02:50:30 PM 53.6000 -118.9833 113° Southeast 170 196 14,900 55 Climbing Vancouver Center
Fri 02:51:30 PM 53.5500 -118.9833 180° South 170 196 14,900  Level Vancouver Center
Fri 02:52:30 PM 53.5000 -119.0000 191° South 170 196 14,900 -50 Level Vancouver Center
Fri 02:53:30 PM 53.4500 -119.0000 180° South 170 196 14,800  Descending Vancouver Center
Fri 02:54:30 PM 53.4167 -119.0000 180° South 170 196 14,900 50 Climbing Vancouver Center
Fri 02:55:30 PM 53.3667 -118.9833 169° South 170 196 14,900  Level Vancouver Center
Fri 02:56:30 PM 53.3167 -118.9833 180° South 170 196 14,900  Level Vancouver Center
Fri 02:57:30 PM 53.2667 -119.0000 191° South 170 196 14,900 -50 Level Vancouver Center
Fri 02:58:30 PM 53.2333 -119.0000 180° South 170 196 14,800 -50 Descending Vancouver Center
Fri 02:59:30 PM 53.1833 -119.0000 180° South 170 196 14,800  Level Vancouver Center
Fri 03:00:30 PM 53.1333 -119.0167 191° South 170 196 14,800 50 Level Vancouver Center
Fri 03:01:30 PM 53.0833 -119.0167 180° South 170 196 14,900 50 Climbing Vancouver Center
Fri 03:02:30 PM 53.0333 -119.0167 180° South 170 196 14,900  Level Vancouver Center
Fri 03:04:00 PM 52.9710 -119.0255 185° South  Level FlightAware Approximate
Fri 03:11:00 PM 52.6397 -119.0723 185° South  Level FlightAware Approximate
Fri 03:11:10 PM 52.6500 -119.0667 185° South 170 196 14,900  Level Vancouver Center
Fri 03:12:00 PM 52.5923 -119.0789 185° South  Level FlightAware Approximate
Fri 03:12:10 PM 52.6000 -119.0667 180° South 170 196 14,900  Level Vancouver Center
Fri 03:13:00 PM 52.5450 -119.0855 185° South  Level FlightAware Approximate
Fri 03:13:10 PM 52.5500 -119.0667 180° South 170 196 14,900  Level Vancouver Center
Fri 03:14:00 PM 52.4977 -119.0921 185° South  Level FlightAware Approximate
Fri 03:14:10 PM 52.5000 -119.0833 191° South 170 196 15,000  Level Vancouver Center
Fri 03:15:00 PM 52.4503 -119.0987 185° South  Level FlightAware Approximate
Fri 03:15:10 PM 52.4500 -119.0833 180° South 170 196 15,000  Level Vancouver Center
Fri 03:16:00 PM 52.4030 -119.1052 185° South  Level FlightAware Approximate
Fri 03:16:10 PM 52.4167 -119.0833 180° South 170 196 14,900  Level Vancouver Center
Fri 03:17:10 PM 52.3667 -119.1000 192° South 170 196 14,900  Level Vancouver Center
Fri 03:18:10 PM 52.3167 -119.1000 180° South 170 196 14,900  Level Vancouver Center
Fri 03:19:10 PM 52.2667 -119.1000 180° South 170 196 14,900 50 Level Vancouver Center
Fri 03:20:10 PM 52.2333 -119.1000 180° South 170 196 15,000 50 Climbing Vancouver Center
Fri 03:21:10 PM 52.1833 -119.1167 192° South 170 196 15,000 -100 Level Vancouver Center
Fri 03:22:10 PM 52.1333 -119.1167 180° South 170 196 14,800 -50 Descending Vancouver Center
Fri 03:23:10 PM 52.0833 -119.1167 180° South 170 196 14,900  Climbing Vancouver Center
Fri 03:24:10 PM 52.0333 -119.1333 192° South 170 196 14,800  Descending Vancouver Center
Fri 03:25:10 PM 51.9833 -119.1333 180° South 170 196 14,900 50 Climbing Vancouver Center
Fri 03:26:10 PM 51.9500 -119.1333 180° South 170 196 14,900 -50 Level Vancouver Center
Fri 03:27:10 PM 51.9000 -119.1333 180° South 170 196 14,800 -50 Descending Vancouver Center
Fri 03:28:10 PM 51.8500 -119.1667 202° Southwest 170 196 14,800  Level Vancouver Center
Fri 03:29:10 PM 51.8000 -119.1500 168° South 170 196 14,800  Level Vancouver Center
Fri 03:30:10 PM 51.7500 -119.1500 180° South 170 196 14,800  Level Vancouver Center
Fri 03:31:10 PM 51.7167 -119.1667 197° South 160 184 14,800  Level Vancouver Center
Fri 03:32:10 PM 51.6667 -119.1667 180° South 170 196 14,800  Level Vancouver Center
Fri 03:33:10 PM 51.6167 -119.1667 180° South 170 196 14,800 50 Level Vancouver Center
Fri 03:34:10 PM 51.5667 -119.1833 192° South 170 196 14,900  Climbing Vancouver Center
Fri 03:35:10 PM 51.5333 -119.1833 180° South 170 196 14,800 -50 Descending Vancouver Center
Fri 03:36:10 PM 51.4833 -119.1833 180° South 170 196 14,800  Level Vancouver Center
Fri 03:37:10 PM 51.4333 -119.1833 180° South 170 196 14,800 50 Level Vancouver Center
Fri 03:38:10 PM 51.3833 -119.2000 192° South 170 196 14,900 50 Climbing Vancouver Center
Fri 03:39:10 PM 51.3333 -119.2000 180° South 170 196 14,900  Level Vancouver Center
Fri 03:40:10 PM 51.3000 -119.2000 180° South 170 196 14,900  Level Vancouver Center
Fri 03:41:10 PM 51.2500 -119.2000 180° South 170 196 14,900  Level Vancouver Center
Fri 03:42:10 PM 51.2000 -119.2167 192° South 170 196 14,900 -150 Level Vancouver Center
Fri 03:43:10 PM 51.1500 -119.2167 180° South 170 196 14,600 -550 Descending Vancouver Center
Fri 03:44:10 PM 51.1000 -119.2167 180° South 190 219 13,800 -850 Descending Vancouver Center
Fri 03:45:10 PM 51.0500 -119.2333 192° South 200 230 12,900 -850 Descending Vancouver Center
Fri 03:46:10 PM 50.9833 -119.2333 180° South 200 230 12,100 -450 Descending Vancouver Center
Fri 03:47:10 PM 50.9333 -119.2167 168° South 190 219 12,000 -100 Descending Vancouver Center
Fri 03:48:10 PM 50.8833 -119.2167 180° South 180 207 11,900 -350 Descending Vancouver Center
Fri 03:49:10 PM 50.8333 -119.2167 180° South 190 219 11,300 -700 Descending Vancouver Center
Fri 03:50:10 PM 50.7833 -119.2000 168° South 200 230 10,500 -750 Descending Vancouver Center
Fri 03:51:10 PM 50.7167 -119.2000 180° South 200 230 9,800 -750 Descending Vancouver Center
Fri 03:52:10 PM 50.6667 -119.2167 192° South 200 230 9,000 -800 Descending Vancouver Center
Fri 03:53:10 PM 50.6167 -119.2167 180° South 190 219 8,200 -800 Descending Vancouver Center

Login

Don't have an account? Register now (free) for customized features, flight alerts, and more!